createdAt,value
2023-07-25T00:02:03.253Z,2.10
2023-07-25T00:04:31.160Z,2.00
2023-07-25T00:06:59.088Z,2.00
2023-07-25T00:09:27.088Z,2.00
2023-07-25T00:11:55.063Z,1.70
2023-07-25T00:14:22.902Z,1.70
2023-07-25T00:16:50.917Z,1.70
2023-07-25T00:19:19.090Z,1.60
2023-07-25T00:21:47.070Z,1.50
2023-07-25T00:24:15.057Z,1.30
2023-07-25T00:26:43.044Z,1.60
2023-07-25T00:29:11.090Z,1.50
2023-07-25T00:31:39.130Z,1.50
2023-07-25T00:34:07.902Z,1.40
2023-07-25T00:36:35.875Z,1.80
2023-07-25T00:39:03.827Z,1.70
2023-07-25T00:41:32.359Z,1.30
2023-07-25T00:44:00.664Z,1.70
2023-07-25T00:46:28.760Z,1.80
2023-07-25T00:48:56.953Z,1.40
2023-07-25T00:51:24.827Z,1.70
2023-07-25T00:53:52.951Z,1.50
2023-07-25T00:56:20.995Z,1.50
2023-07-25T00:58:49.065Z,1.90
2023-07-25T01:01:17.036Z,1.80
2023-07-25T01:03:45.447Z,2.20
2023-07-25T01:06:20.387Z,1.70
2023-07-25T01:08:57.068Z,1.70
2023-07-25T01:11:25.193Z,1.50
2023-07-25T01:13:53.283Z,2.10
2023-07-25T01:16:26.141Z,2.00
2023-07-25T01:18:56.277Z,1.80
2023-07-25T01:21:24.414Z,1.90
2023-07-25T01:23:52.540Z,1.80
2023-07-25T01:26:20.394Z,1.40
2023-07-25T01:28:48.382Z,1.80
2023-07-25T01:31:16.324Z,1.80
2023-07-25T01:33:44.323Z,1.70
2023-07-25T01:36:13.142Z,2.10
2023-07-25T01:38:41.046Z,1.90
2023-07-25T01:41:09.034Z,1.50
2023-07-25T01:43:36.905Z,2.00
2023-07-25T01:46:04.866Z,1.80
2023-07-25T01:48:32.808Z,1.90
2023-07-25T01:51:02.081Z,1.90
2023-07-25T01:53:30.016Z,1.80
2023-07-25T01:55:58.014Z,2.00
2023-07-25T01:58:26.019Z,1.80
2023-07-25T02:01:00.943Z,2.30
2023-07-25T02:03:28.998Z,2.00
2023-07-25T02:05:56.955Z,2.00
2023-07-25T02:08:24.912Z,1.80
2023-07-25T02:10:53.003Z,1.90
2023-07-25T02:13:21.036Z,2.10
2023-07-25T02:15:50.078Z,1.80
2023-07-25T02:18:18.184Z,2.00
2023-07-25T02:20:46.200Z,1.90
2023-07-25T02:23:14.174Z,2.00
2023-07-25T02:25:42.062Z,1.80
2023-07-25T02:28:10.265Z,2.20
2023-07-25T02:30:41.371Z,1.90
2023-07-25T02:33:09.250Z,2.20
2023-07-25T02:35:37.260Z,2.10
2023-07-25T02:38:05.158Z,2.10
2023-07-25T02:40:33.044Z,1.90
2023-07-25T02:43:07.323Z,2.10
2023-07-25T02:45:35.971Z,2.10
2023-07-25T02:48:04.214Z,2.10
2023-07-25T02:50:32.292Z,2.20
2023-07-25T02:53:00.118Z,1.90
2023-07-25T02:55:28.146Z,2.50
2023-07-25T02:57:56.009Z,2.00
2023-07-25T03:00:25.143Z,2.30
2023-07-25T03:02:53.231Z,2.30
2023-07-25T03:05:21.486Z,2.40
2023-07-25T03:07:50.439Z,2.30
2023-07-25T03:10:18.398Z,2.20
2023-07-25T03:12:46.211Z,2.30
2023-07-25T03:15:14.640Z,2.60
2023-07-25T03:17:44.801Z,2.10
2023-07-25T03:20:14.645Z,2.80
2023-07-25T03:22:42.762Z,2.50
2023-07-25T03:25:10.667Z,2.80
2023-07-25T03:27:40.664Z,2.60
2023-07-25T03:30:08.831Z,2.50
2023-07-25T03:32:36.846Z,2.50
2023-07-25T03:35:05.164Z,2.70
2023-07-25T03:37:33.137Z,3.10
2023-07-25T03:40:01.037Z,3.10
2023-07-25T03:42:29.383Z,2.70
2023-07-25T03:44:57.312Z,2.70
2023-07-25T03:47:25.295Z,2.90
2023-07-25T03:49:53.359Z,3.40
2023-07-25T03:52:21.360Z,2.60
2023-07-25T03:54:49.452Z,2.60
2023-07-25T03:57:17.312Z,2.90
2023-07-25T03:59:45.313Z,3.00
2023-07-25T04:02:13.738Z,2.90
2023-07-25T04:04:41.861Z,3.30
2023-07-25T04:07:09.924Z,3.20
2023-07-25T04:09:37.803Z,3.30
2023-07-25T04:12:06.115Z,3.80
2023-07-25T04:14:34.147Z,4.40
2023-07-25T04:17:02.010Z,3.90
2023-07-25T04:19:30.162Z,4.20
2023-07-25T04:21:58.100Z,4.30
2023-07-25T04:24:26.070Z,3.80
2023-07-25T04:26:53.963Z,4.30
2023-07-25T04:29:21.912Z,8.60
2023-07-25T04:31:49.836Z,4.70
2023-07-25T04:34:17.694Z,4.50
2023-07-25T04:36:45.692Z,4.40
2023-07-25T04:39:13.611Z,4.80
2023-07-25T04:41:41.654Z,4.30
2023-07-25T04:44:09.704Z,4.30
2023-07-25T04:46:37.752Z,4.00
2023-07-25T04:49:08.100Z,4.10
2023-07-25T04:51:36.044Z,4.50
2023-07-25T04:54:04.126Z,4.40
2023-07-25T04:56:32.155Z,4.20
2023-07-25T04:59:00.095Z,4.30
2023-07-25T05:01:28.053Z,4.20
2023-07-25T05:03:55.971Z,4.50
2023-07-25T05:06:23.987Z,4.20
2023-07-25T05:08:51.900Z,4.10
2023-07-25T05:11:19.825Z,4.30
2023-07-25T05:13:48.093Z,3.40
2023-07-25T05:16:16.122Z,3.90
2023-07-25T05:18:43.976Z,3.10
2023-07-25T05:21:11.809Z,3.70
2023-07-25T05:23:39.693Z,3.90
2023-07-25T05:26:08.560Z,3.60
2023-07-25T05:28:36.452Z,3.30
2023-07-25T05:31:04.992Z,3.40
2023-07-25T05:33:33.024Z,3.90
2023-07-25T05:36:04.410Z,3.20
2023-07-25T05:38:32.397Z,4.20
2023-07-25T05:41:00.743Z,3.30
2023-07-25T05:43:28.636Z,3.20
2023-07-25T05:45:56.604Z,3.30
2023-07-25T05:48:24.498Z,3.30
2023-07-25T05:50:53.419Z,3.70
2023-07-25T05:53:21.331Z,2.90
2023-07-25T05:55:49.361Z,2.70
2023-07-25T05:58:17.931Z,3.10
2023-07-25T06:00:46.544Z,2.90
2023-07-25T06:03:15.920Z,3.10
2023-07-25T06:05:44.040Z,2.60
2023-07-25T06:08:12.017Z,2.60
2023-07-25T06:10:40.608Z,3.00
2023-07-25T06:13:08.504Z,2.90
2023-07-25T06:15:36.583Z,2.90
2023-07-25T06:18:05.770Z,3.30
2023-07-25T06:20:34.585Z,3.00
2023-07-25T06:23:03.143Z,2.80
2023-07-25T06:25:31.233Z,2.70
2023-07-25T06:27:59.202Z,2.70
2023-07-25T06:30:27.229Z,3.20
2023-07-25T06:32:55.727Z,2.80
2023-07-25T06:35:23.914Z,2.60
2023-07-25T06:37:51.759Z,2.60
2023-07-25T06:40:19.696Z,2.70
2023-07-25T06:42:47.686Z,2.70
2023-07-25T06:45:18.161Z,2.70
2023-07-25T06:47:46.170Z,3.30
2023-07-25T06:50:14.143Z,2.70
2023-07-25T06:52:42.026Z,2.70
2023-07-25T06:55:10.193Z,2.30
2023-07-25T06:57:38.007Z,2.80
2023-07-25T07:00:09.273Z,2.60
2023-07-25T07:02:37.398Z,2.90
2023-07-25T07:05:19.300Z,3.30
2023-07-25T07:07:54.500Z,2.90
2023-07-25T07:10:22.349Z,3.30
2023-07-25T07:12:50.261Z,2.90
2023-07-25T07:15:18.752Z,3.00
2023-07-25T07:17:46.818Z,2.80
2023-07-25T07:20:14.732Z,2.80
2023-07-25T07:22:42.550Z,3.00
2023-07-25T07:25:10.646Z,3.00
2023-07-25T07:27:38.548Z,3.30
2023-07-25T07:30:07.255Z,3.60
2023-07-25T07:32:35.277Z,3.00
2023-07-25T07:35:03.291Z,3.10
2023-07-25T07:37:32.517Z,2.70
2023-07-25T07:40:02.382Z,2.60
2023-07-25T07:42:30.456Z,3.00
2023-07-25T07:44:58.459Z,2.80
2023-07-25T07:47:26.385Z,2.80
2023-07-25T07:49:54.298Z,3.00
2023-07-25T07:52:32.917Z,2.60
2023-07-25T07:55:11.579Z,2.70
2023-07-25T07:57:44.669Z,2.40
2023-07-25T08:00:15.121Z,2.30
2023-07-25T08:02:44.575Z,2.90
2023-07-25T08:05:13.619Z,2.80
2023-07-25T08:07:41.840Z,2.70
2023-07-25T08:10:10.332Z,2.80
2023-07-25T08:12:39.148Z,2.60
2023-07-25T08:15:07.746Z,2.60
2023-07-25T08:17:35.977Z,2.70
2023-07-25T08:20:04.344Z,2.60
2023-07-25T08:22:32.297Z,2.60
2023-07-25T08:25:00.464Z,2.60
2023-07-25T08:27:28.621Z,3.10
2023-07-25T08:29:56.647Z,3.20
2023-07-25T08:32:26.735Z,2.80
2023-07-25T08:34:54.956Z,2.80
2023-07-25T08:37:24.684Z,2.70
2023-07-25T08:39:52.652Z,2.50
2023-07-25T08:42:22.817Z,2.40
2023-07-25T08:44:56.127Z,2.60
2023-07-25T08:47:29.438Z,2.50
2023-07-25T08:49:59.365Z,2.60
2023-07-25T08:52:32.229Z,2.40
2023-07-25T08:55:00.830Z,2.40
2023-07-25T08:57:29.744Z,2.60
2023-07-25T08:59:58.832Z,2.50
2023-07-25T09:02:27.128Z,2.50
2023-07-25T09:04:55.738Z,2.30
2023-07-25T09:07:23.742Z,1.90
2023-07-25T09:09:51.948Z,2.70
2023-07-25T09:12:20.299Z,2.40
2023-07-25T09:14:48.480Z,2.10
2023-07-25T09:17:16.409Z,2.20
2023-07-25T09:19:44.615Z,1.80
2023-07-25T09:22:46.877Z,2.30
2023-07-25T09:25:16.527Z,2.30
2023-07-25T09:27:47.910Z,2.20
2023-07-25T09:30:15.904Z,2.00
2023-07-25T09:32:48.641Z,2.00
2023-07-25T09:35:16.903Z,2.10
2023-07-25T09:37:53.503Z,2.20
2023-07-25T09:40:21.611Z,2.30
2023-07-25T09:42:52.544Z,2.20
2023-07-25T09:45:21.143Z,2.00
2023-07-25T09:47:51.709Z,2.00
2023-07-25T09:50:19.649Z,2.50
2023-07-25T09:52:47.624Z,2.50
2023-07-25T09:55:15.556Z,2.20
2023-07-25T09:57:43.593Z,2.30
2023-07-25T10:00:12.194Z,2.10
2023-07-25T10:02:40.819Z,2.20
2023-07-25T10:05:09.541Z,2.30
2023-07-25T10:07:39.184Z,2.50
2023-07-25T10:10:08.777Z,2.10
2023-07-25T10:12:36.703Z,2.10
2023-07-25T10:15:05.680Z,2.20
2023-07-25T10:17:33.851Z,1.70
2023-07-25T10:20:08.974Z,1.80
2023-07-25T10:22:41.762Z,2.30
2023-07-25T10:25:11.925Z,1.40
2023-07-25T10:27:40.331Z,1.60
2023-07-25T10:30:24.876Z,1.70
2023-07-25T10:33:00.067Z,1.50
2023-07-25T10:35:54.444Z,1.60
2023-07-25T10:38:41.056Z,1.80
2023-07-25T10:41:11.933Z,1.80
2023-07-25T10:43:45.667Z,1.90
2023-07-25T10:46:19.200Z,1.90
2023-07-25T10:48:51.887Z,2.20
2023-07-25T10:51:21.289Z,1.80
2023-07-25T10:54:10.986Z,2.10
2023-07-25T10:56:39.870Z,1.90
2023-07-25T10:59:12.549Z,2.10
2023-07-25T11:01:46.339Z,1.90
2023-07-25T11:04:26.072Z,2.00
2023-07-25T11:06:56.706Z,1.90
2023-07-25T11:09:26.327Z,1.60
2023-07-25T11:11:56.086Z,2.00
2023-07-25T11:14:24.527Z,1.70
2023-07-25T11:16:54.124Z,1.70
2023-07-25T11:19:28.802Z,2.20
2023-07-25T11:21:57.145Z,1.90
2023-07-25T11:24:25.260Z,1.90
2023-07-25T11:26:53.157Z,1.80
2023-07-25T11:29:21.091Z,1.90
2023-07-25T11:31:50.832Z,1.90
2023-07-25T11:34:21.029Z,2.20
2023-07-25T11:36:49.055Z,2.40
2023-07-25T11:39:17.487Z,2.00
2023-07-25T11:41:47.212Z,1.90
2023-07-25T11:44:18.325Z,1.60
2023-07-25T11:46:52.150Z,1.70
2023-07-25T11:49:40.326Z,2.00
2023-07-25T11:52:11.278Z,1.80
2023-07-25T11:54:39.918Z,2.30
2023-07-25T11:57:11.337Z,1.90
2023-07-25T11:59:43.064Z,2.40
2023-07-25T12:02:14.285Z,2.00
2023-07-25T12:04:45.145Z,2.10
2023-07-25T12:07:14.694Z,3.20
2023-07-25T12:09:56.345Z,2.10
2023-07-25T12:12:24.469Z,2.00
2023-07-25T12:15:03.180Z,1.80
2023-07-25T12:17:46.737Z,1.60
2023-07-25T12:20:23.577Z,1.60
2023-07-25T12:23:06.777Z,1.90
2023-07-25T12:25:37.342Z,1.70
2023-07-25T12:28:05.458Z,2.00
2023-07-25T12:30:33.547Z,1.50
2023-07-25T12:33:01.685Z,1.40
2023-07-25T12:35:29.746Z,1.80
2023-07-25T12:37:59.020Z,1.50
2023-07-25T12:40:27.125Z,1.60
2023-07-25T12:42:55.137Z,1.60
2023-07-25T12:45:23.150Z,1.60
2023-07-25T12:47:51.238Z,1.50
2023-07-25T12:50:19.375Z,1.50
2023-07-25T12:52:47.476Z,1.50
2023-07-25T12:55:15.685Z,1.50
2023-07-25T12:57:43.699Z,1.30
2023-07-25T13:00:12.594Z,1.30
2023-07-25T13:02:40.752Z,1.30
2023-07-25T13:05:09.002Z,1.30
2023-07-25T13:07:37.223Z,1.60
2023-07-25T13:10:07.989Z,1.60
2023-07-25T13:12:36.278Z,1.60
2023-07-25T13:15:06.248Z,1.40
2023-07-25T13:17:35.609Z,1.70
2023-07-25T13:20:08.372Z,1.40
2023-07-25T13:22:37.321Z,1.40
2023-07-25T13:25:05.711Z,1.30
2023-07-25T13:27:33.934Z,1.30
2023-07-25T13:30:01.984Z,1.30
2023-07-25T13:32:30.108Z,1.50
2023-07-25T13:34:58.184Z,1.60
2023-07-25T13:37:26.317Z,1.30
2023-07-25T13:39:54.396Z,1.30
2023-07-25T13:42:24.136Z,1.30
2023-07-25T13:44:52.476Z,1.50
2023-07-25T13:47:21.712Z,1.70
2023-07-25T13:49:50.047Z,1.30
2023-07-25T13:52:18.075Z,1.50
2023-07-25T13:54:46.195Z,1.30
2023-07-25T13:57:15.182Z,1.20
2023-07-25T13:59:43.398Z,1.40
2023-07-25T14:02:12.520Z,1.10
2023-07-25T14:04:40.935Z,1.10
2023-07-25T14:07:09.593Z,1.10
2023-07-25T14:09:37.675Z,1.30
2023-07-25T14:12:07.055Z,1.20
2023-07-25T14:14:35.950Z,1.20
2023-07-25T14:17:04.837Z,1.40
2023-07-25T14:19:32.997Z,1.10
2023-07-25T14:22:01.611Z,1.40
2023-07-25T14:24:29.908Z,1.40
2023-07-25T14:26:58.560Z,1.60
2023-07-25T14:29:26.629Z,1.40
2023-07-25T14:31:54.644Z,1.40
2023-07-25T14:34:25.202Z,1.50
2023-07-25T14:36:53.300Z,1.30
2023-07-25T14:39:21.445Z,1.70
2023-07-25T14:41:49.373Z,1.70
2023-07-25T14:44:17.655Z,1.60
2023-07-25T14:46:45.710Z,1.50
2023-07-25T14:49:13.711Z,1.70
2023-07-25T14:51:41.900Z,1.90
2023-07-25T14:54:09.932Z,1.50
2023-07-25T14:56:38.131Z,1.40
2023-07-25T14:59:06.545Z,1.70
2023-07-25T15:01:34.981Z,1.30
2023-07-25T15:04:03.130Z,1.50
2023-07-25T15:06:31.906Z,2.10
2023-07-25T15:09:00.125Z,1.50
2023-07-25T15:11:28.670Z,1.60
2023-07-25T15:13:56.981Z,1.30
2023-07-25T15:16:25.131Z,1.40
2023-07-25T15:18:53.415Z,1.00
2023-07-25T15:21:21.565Z,1.20
2023-07-25T15:23:49.586Z,1.00
2023-07-25T15:26:17.594Z,1.00
2023-07-25T15:28:46.102Z,1.20
2023-07-25T15:31:14.159Z,1.00
2023-07-25T15:33:42.397Z,1.20
2023-07-25T15:36:10.427Z,1.40
2023-07-25T15:38:38.591Z,1.40
2023-07-25T15:41:06.502Z,1.50
2023-07-25T15:43:34.562Z,1.20
2023-07-25T15:46:02.502Z,0.90
2023-07-25T15:48:30.747Z,1.40
2023-07-25T15:50:58.784Z,1.20
2023-07-25T15:53:26.762Z,1.60
2023-07-25T15:55:54.793Z,2.10
2023-07-25T15:58:22.780Z,1.50
2023-07-25T16:00:51.110Z,1.50
2023-07-25T16:03:19.364Z,1.60
2023-07-25T16:05:47.618Z,1.60
2023-07-25T16:08:15.722Z,1.50
2023-07-25T16:10:43.904Z,1.50
2023-07-25T16:13:11.860Z,1.80
2023-07-25T16:15:39.763Z,1.50
2023-07-25T16:18:07.849Z,2.00
2023-07-25T16:20:35.965Z,1.90
2023-07-25T16:23:04.110Z,1.70
2023-07-25T16:25:32.106Z,1.40
2023-07-25T16:28:00.284Z,1.20
2023-07-25T16:30:28.502Z,1.20
2023-07-25T16:32:56.541Z,1.50
2023-07-25T16:35:24.631Z,2.00
2023-07-25T16:37:52.743Z,1.50
2023-07-25T16:40:20.914Z,1.70
2023-07-25T16:42:49.220Z,1.80
2023-07-25T16:45:17.342Z,1.70
2023-07-25T16:47:45.282Z,1.90
2023-07-25T16:50:13.390Z,1.40
2023-07-25T16:52:41.511Z,1.50
2023-07-25T16:55:11.005Z,1.30
2023-07-25T16:57:39.272Z,1.30
2023-07-25T17:00:07.833Z,1.30
2023-07-25T17:02:36.809Z,1.50
2023-07-25T17:05:05.527Z,1.50
2023-07-25T17:07:33.556Z,1.90
2023-07-25T17:10:01.598Z,1.60
2023-07-25T17:12:29.537Z,1.80
2023-07-25T17:14:57.626Z,1.60
2023-07-25T17:17:27.312Z,1.80
2023-07-25T17:19:55.456Z,1.70
2023-07-25T17:22:24.994Z,1.60
2023-07-25T17:24:55.249Z,1.60
2023-07-25T17:27:24.969Z,1.20
2023-07-25T17:29:54.429Z,1.60
2023-07-25T17:32:22.911Z,1.30
2023-07-25T17:34:51.128Z,1.70
2023-07-25T17:37:19.142Z,1.20
2023-07-25T17:39:47.321Z,1.50
2023-07-25T17:42:15.339Z,1.50
2023-07-25T17:44:43.440Z,1.30
2023-07-25T17:47:11.562Z,1.50
2023-07-25T17:49:40.415Z,1.50
2023-07-25T17:52:10.717Z,1.20
2023-07-25T17:54:39.088Z,1.60
2023-07-25T17:57:07.255Z,2.10
2023-07-25T17:59:35.731Z,1.40
2023-07-25T18:02:03.919Z,1.30
2023-07-25T18:04:32.171Z,1.20
2023-07-25T18:07:00.553Z,1.40
2023-07-25T18:09:28.615Z,1.20
2023-07-25T18:11:56.670Z,1.20
2023-07-25T18:14:25.151Z,1.30
2023-07-25T18:16:53.408Z,1.40
2023-07-25T18:19:21.471Z,1.60
2023-07-25T18:21:51.463Z,1.40
2023-07-25T18:24:22.041Z,1.20
2023-07-25T18:26:51.278Z,1.20
2023-07-25T18:29:19.695Z,1.30
2023-07-25T18:31:47.831Z,1.30
2023-07-25T18:34:15.948Z,1.40
2023-07-25T18:36:44.052Z,1.40
2023-07-25T18:39:15.062Z,1.20
2023-07-25T18:41:43.235Z,1.50
2023-07-25T18:44:11.755Z,1.70
2023-07-25T18:46:39.936Z,1.90
2023-07-25T18:49:08.073Z,1.90
2023-07-25T18:51:36.106Z,1.80
2023-07-25T18:54:04.158Z,1.90
2023-07-25T18:56:32.557Z,1.70
2023-07-25T18:59:00.975Z,1.90
2023-07-25T19:01:29.462Z,1.70
2023-07-25T19:03:59.546Z,1.80
2023-07-25T19:06:28.184Z,1.90
2023-07-25T19:08:56.291Z,2.00
2023-07-25T19:11:24.249Z,2.10
2023-07-25T19:13:52.297Z,2.10
2023-07-25T19:16:20.812Z,2.20
2023-07-25T19:18:51.493Z,2.30
2023-07-25T19:21:19.468Z,1.90
2023-07-25T19:23:47.570Z,2.50
2023-07-25T19:26:15.728Z,2.20
2023-07-25T19:28:43.779Z,2.10
2023-07-25T19:31:12.150Z,1.90
2023-07-25T19:33:40.165Z,2.10
2023-07-25T19:36:08.376Z,2.90
2023-07-25T19:38:36.648Z,2.30
2023-07-25T19:41:04.727Z,1.90
2023-07-25T19:43:33.470Z,1.80
2023-07-25T19:46:05.112Z,1.80
2023-07-25T19:48:33.541Z,2.20
2023-07-25T19:51:11.302Z,1.90
2023-07-25T19:53:39.777Z,2.20
2023-07-25T19:56:09.485Z,1.70
2023-07-25T19:58:37.585Z,2.40
2023-07-25T20:01:10.836Z,1.90
2023-07-25T20:03:40.273Z,2.00
2023-07-25T20:06:09.753Z,1.90
2023-07-25T20:08:39.489Z,2.00
2023-07-25T20:11:08.692Z,2.20
2023-07-25T20:13:37.420Z,1.90
2023-07-25T20:16:05.959Z,2.20
2023-07-25T20:18:34.191Z,2.30
2023-07-25T20:21:09.880Z,2.40
2023-07-25T20:23:39.407Z,2.10
2023-07-25T20:26:07.774Z,2.30
2023-07-25T20:28:35.741Z,2.40
2023-07-25T20:31:04.656Z,2.30
2023-07-25T20:33:34.166Z,2.20
2023-07-25T20:36:03.566Z,2.50
2023-07-25T20:38:34.975Z,2.30
2023-07-25T20:41:03.986Z,2.10
2023-07-25T20:43:32.140Z,2.50
2023-07-25T20:46:04.506Z,2.20
2023-07-25T20:48:33.196Z,2.40
2023-07-25T20:51:02.976Z,2.30
2023-07-25T20:53:31.004Z,2.30
2023-07-25T20:55:59.466Z,2.20
2023-07-25T20:58:27.434Z,2.20
2023-07-25T21:00:55.525Z,1.90
2023-07-25T21:03:23.822Z,2.40
2023-07-25T21:05:52.104Z,2.60
2023-07-25T21:08:20.366Z,2.70
2023-07-25T21:10:50.803Z,2.40
2023-07-25T21:13:18.870Z,2.60
2023-07-25T21:15:50.088Z,2.50
2023-07-25T21:18:18.368Z,2.40
2023-07-25T21:20:46.488Z,2.50
2023-07-25T21:23:14.609Z,2.30
2023-07-25T21:25:43.007Z,2.30
2023-07-25T21:28:11.055Z,2.40
2023-07-25T21:30:39.087Z,2.50
2023-07-25T21:33:07.359Z,3.40
2023-07-25T21:35:36.527Z,4.20
2023-07-25T21:38:04.628Z,4.00
2023-07-25T21:40:32.609Z,5.70
2023-07-25T21:43:00.696Z,5.10
2023-07-25T21:45:28.722Z,4.80
2023-07-25T21:47:56.898Z,3.90
2023-07-25T21:50:25.031Z,6.00
2023-07-25T21:52:53.088Z,3.10
2023-07-25T21:55:21.501Z,2.60
2023-07-25T21:57:49.521Z,2.60
2023-07-25T22:00:17.600Z,2.80
2023-07-25T22:02:45.584Z,2.50
2023-07-25T22:05:13.697Z,2.50
2023-07-25T22:07:41.752Z,2.80
2023-07-25T22:10:10.040Z,3.20
2023-07-25T22:12:38.226Z,2.80
2023-07-25T22:15:08.050Z,2.80
2023-07-25T22:17:36.210Z,2.50
2023-07-25T22:20:04.547Z,2.80
2023-07-25T22:22:32.650Z,2.90
2023-07-25T22:25:01.493Z,3.00
2023-07-25T22:27:29.662Z,2.80
2023-07-25T22:29:57.850Z,2.90
2023-07-25T22:32:26.106Z,2.90
2023-07-25T22:34:54.167Z,2.40
2023-07-25T22:37:26.156Z,3.30
2023-07-25T22:39:54.147Z,2.90
2023-07-25T22:42:23.655Z,2.80
2023-07-25T22:44:51.715Z,3.00
2023-07-25T22:47:19.738Z,3.10
2023-07-25T22:49:52.621Z,2.90
2023-07-25T22:52:23.492Z,2.90
2023-07-25T22:54:51.578Z,3.20
2023-07-25T22:57:19.648Z,3.40
2023-07-25T22:59:47.669Z,2.90
2023-07-25T23:02:15.772Z,3.20
2023-07-25T23:04:44.035Z,3.20
2023-07-25T23:07:12.025Z,3.30
2023-07-25T23:09:40.078Z,4.00
2023-07-25T23:12:08.505Z,3.70
2023-07-25T23:14:37.536Z,3.80
2023-07-25T23:17:05.927Z,3.30
2023-07-25T23:19:33.928Z,3.50
2023-07-25T23:22:01.905Z,4.20
2023-07-25T23:24:29.951Z,4.00
2023-07-25T23:26:57.924Z,4.10
2023-07-25T23:29:25.994Z,4.50
2023-07-25T23:31:54.080Z,4.00
2023-07-25T23:34:22.024Z,4.70
2023-07-25T23:36:50.051Z,4.30
2023-07-25T23:39:18.162Z,4.40
2023-07-25T23:41:46.307Z,4.20
2023-07-25T23:44:14.429Z,4.40
2023-07-25T23:46:42.484Z,4.00
2023-07-25T23:49:10.426Z,4.50
2023-07-25T23:51:38.519Z,4.30
2023-07-25T23:54:06.632Z,4.10
2023-07-25T23:56:34.701Z,4.10
2023-07-25T23:59:03.106Z,4.50
